Time;durP1;ratioP1;P1;durP2;ratioP2;P2;SDS_P1;SDS_P2;PMS_P1;PMS_P2;Temp;Humidity;BMP_temperature;BMP_pressure;BME280_temperature;BME280_humidity;BME280_pressure;Samples;Min_cycle;Max_cycle;Signal;HPM_P1;HPM_P2
2022/06/05 00:02:52;;;;;;;;;5.00;4.00;;;;;37.13;27.01;100965.16;5099252;27;45457;-75
2022/06/05 00:05:25;;;;;;;;;4.00;4.00;;;;;37.04;27.85;100943.84;5099348;27;45335;-75
2022/06/05 00:08:28;;;;;;;;;5.00;4.00;;;;;37.06;27.70;100928.88;5098493;27;45444;-74
2022/06/05 00:10:56;;;;;;;;;5.00;5.00;;;;;37.22;27.71;100919.16;5096501;27;67365;-74
2022/06/05 00:13:41;;;;;;;;;3.00;3.00;;;;;37.38;26.81;100918.66;5114836;27;45479;-74
2022/06/05 00:16:08;;;;;;;;;4.00;4.00;;;;;37.35;27.53;100914.28;5099109;27;45438;-75
2022/06/05 00:18:35;;;;;;;;;4.00;4.00;;;;;37.30;27.25;100919.38;5098619;27;45494;-75
2022/06/05 00:21:01;;;;;;;;;4.00;4.00;;;;;37.15;27.40;100929.91;5098766;27;46392;-75
2022/06/05 00:23:27;;;;;;;;;4.00;4.00;;;;;37.15;27.61;100905.00;5098519;27;45281;-75
2022/06/05 00:26:10;;;;;;;;;6.33;4.00;;;;;37.24;27.01;100904.19;5098812;27;45328;-75
2022/06/05 00:29:03;;;;;;;;;5.33;5.33;;;;;37.16;27.56;100890.19;5098865;27;45388;-74
2022/06/05 00:31:45;;;;;;;;;5.00;5.00;;;;;37.10;27.19;100901.78;5096958;27;47267;-74
2022/06/05 00:34:10;;;;;;;;;7.00;7.00;;;;;37.08;27.13;100892.78;5098546;27;45243;-74
2022/06/05 00:37:12;;;;;;;;;6.00;6.00;;;;;37.09;27.33;100889.00;5098656;27;45465;-74
2022/06/05 00:39:59;;;;;;;;;7.00;6.67;;;;;37.32;27.16;100903.50;5088970;27;45231;-74
2022/06/05 00:42:29;;;;;;;;;7.00;6.00;;;;;37.25;27.50;100896.75;5098389;27;45593;-74
2022/06/05 00:45:01;;;;;;;;;8.67;7.67;;;;;37.36;27.55;100896.66;5098335;27;45381;-74
2022/06/05 00:47:31;;;;;;;;;7.33;6.33;;;;;37.27;27.70;100878.13;5098429;27;45377;-75
2022/06/05 00:50:11;;;;;;;;;7.33;7.33;;;;;37.23;27.91;100890.47;5098065;27;45599;-74
2022/06/05 00:52:41;;;;;;;;;8.00;8.00;;;;;37.36;27.21;100904.97;5097889;27;46166;-74
2022/06/05 00:55:08;;;;;;;;;10.67;9.33;;;;;37.32;27.82;100905.41;5098041;27;45332;-75
2022/06/05 00:57:35;;;;;;;;;8.00;8.00;;;;;37.33;27.17;100907.13;5096863;27;45414;-74
2022/06/05 01:00:15;;;;;;;;;7.33;6.00;;;;;37.36;27.26;100884.72;5096989;27;45509;-74
2022/06/05 01:02:43;;;;;;;;;7.67;6.33;;;;;37.47;27.37;100903.97;5098020;27;45562;-75
2022/06/05 01:05:10;;;;;;;;;9.00;9.00;;;;;37.45;27.92;100875.56;5098065;27;45358;-74
2022/06/05 01:07:36;;;;;;;;;9.00;9.00;;;;;37.53;27.37;100897.84;5097437;27;45310;-74
2022/06/05 01:10:02;;;;;;;;;8.00;8.00;;;;;37.49;27.27;100904.69;5098016;27;45890;-74
2022/06/05 01:12:51;;;;;;;;;8.00;8.00;;;;;37.26;27.44;100895.75;5097917;27;46267;-74
2022/06/05 01:15:51;;;;;;;;;7.00;7.00;;;;;37.04;27.39;100902.34;5098008;27;45392;-74
2022/06/05 01:18:42;;;;;;;;;8.00;7.67;;;;;37.02;28.51;100898.84;5097869;27;45463;-74
2022/06/05 01:21:07;;;;;;;;;9.00;8.00;;;;;37.17;28.21;100882.75;5097641;27;45517;-74
2022/06/05 01:24:00;;;;;;;;;9.00;8.00;;;;;37.28;27.90;100868.81;5097627;27;45393;-74
2022/06/05 01:26:52;;;;;;;;;7.33;7.00;;;;;37.14;28.20;100866.44;5097653;27;45352;-74
2022/06/05 01:29:29;;;;;;;;;8.00;8.00;;;;;37.17;27.71;100847.66;5093215;27;45645;-74
2022/06/05 01:32:01;;;;;;;;;8.33;8.33;;;;;37.12;28.16;100818.66;5097620;27;45478;-75
2022/06/05 01:34:39;;;;;;;;;11.00;10.00;;;;;37.25;27.84;100830.34;5097525;27;46168;-74
2022/06/05 01:37:20;;;;;;;;;9.33;9.33;;;;;37.27;27.32;100821.91;5097326;27;45507;-74
2022/06/05 01:40:05;;;;;;;;;9.33;9.00;;;;;37.16;28.29;100821.03;5096123;27;45457;-75
2022/06/05 01:42:41;;;;;;;;;8.33;8.33;;;;;37.25;27.55;100814.63;5097636;27;45302;-74
2022/06/05 01:45:37;;;;;;;;;9.67;8.67;;;;;37.45;28.01;100811.91;5097360;27;46476;-74
2022/06/05 01:48:06;;;;;;;;;10.67;9.33;;;;;37.17;27.54;100770.19;5053987;28;45428;-74
2022/06/05 01:50:42;;;;;;;;;10.00;10.00;;;;;37.28;27.78;100798.78;5054084;28;45482;-75
2022/06/05 01:53:10;;;;;;;;;10.67;10.00;;;;;37.19;28.04;100804.13;5037595;28;45378;-74
2022/06/05 01:56:05;;;;;;;;;9.67;9.33;;;;;37.15;27.76;100796.28;5054086;28;46707;-75
2022/06/05 01:58:44;;;;;;;;;12.33;11.33;;;;;37.31;27.53;100792.97;5053839;28;45260;-74
2022/06/05 02:01:22;;;;;;;;;9.00;9.00;;;;;37.39;27.41;100787.59;5054477;28;45402;-74
2022/06/05 02:04:01;;;;;;;;;11.67;10.67;;;;;37.47;27.48;100778.53;5053709;28;45513;-74
2022/06/05 02:06:34;;;;;;;;;9.00;8.00;;;;;37.40;27.86;100772.75;5054022;28;45620;-74
2022/06/05 02:09:25;;;;;;;;;10.67;8.33;;;;;37.50;27.90;100767.19;5037080;28;45785;-74
2022/06/05 02:11:51;;;;;;;;;7.00;7.00;;;;;37.56;27.16;100770.22;5054067;28;45425;-75
2022/06/05 02:14:16;;;;;;;;;10.33;10.33;;;;;37.58;27.51;100756.25;5054184;28;45280;-74
2022/06/05 02:16:43;;;;;;;;;9.00;9.00;;;;;37.67;27.57;100768.34;5036900;28;48216;-75
2022/06/05 02:19:12;;;;;;;;;7.67;7.67;;;;;37.63;27.39;100756.69;5052695;28;45384;-75
2022/06/05 02:21:39;;;;;;;;;11.67;11.67;;;;;37.65;27.30;100760.19;5053960;28;45356;-74
2022/06/05 02:24:07;;;;;;;;;9.33;9.33;;;;;37.50;27.83;100736.75;5059314;27;45591;-74
2022/06/05 02:26:32;;;;;;;;;9.67;8.67;;;;;37.54;27.63;100761.22;5096564;27;46659;-75
2022/06/05 02:29:01;;;;;;;;;13.00;9.00;;;;;37.32;27.66;100754.09;5095266;27;45899;-74
2022/06/05 02:31:41;;;;;;;;;11.00;9.67;;;;;37.36;27.61;100760.22;5096748;27;45499;-74
2022/06/05 02:34:36;;;;;;;;;10.33;10.33;;;;;37.16;27.31;100765.69;5096449;27;45487;-75
2022/06/05 02:37:27;;;;;;;;;11.00;10.00;;;;;37.05;27.70;100760.31;5053166;28;45382;-74
2022/06/05 02:40:09;;;;;;;;;9.33;9.33;;;;;37.05;27.64;100763.06;5053382;28;45466;-74
2022/06/05 02:42:55;;;;;;;;;10.33;10.33;;;;;36.86;27.68;100745.41;5053530;28;45546;-74
2022/06/05 02:45:57;;;;;;;;;11.00;11.00;;;;;36.95;27.73;100751.09;5053591;28;45567;-74
2022/06/05 02:48:41;;;;;;;;;8.00;8.00;;;;;37.11;28.03;100742.25;5053093;28;46420;-75
2022/06/05 02:51:17;;;;;;;;;11.67;11.67;;;;;37.20;28.11;100739.50;5053187;28;45338;-74
2022/06/05 02:53:47;;;;;;;;;10.33;10.33;;;;;37.18;27.57;100708.31;5053036;28;45454;-74
2022/06/05 02:56:13;;;;;;;;;8.00;8.00;;;;;36.97;27.33;100677.19;5053313;28;45453;-74
2022/06/05 02:58:38;;;;;;;;;10.00;10.00;;;;;37.21;27.87;100713.56;5053194;28;45518;-74
2022/06/05 03:03:48;;;;;;;;;9.00;9.00;;;;;37.26;27.91;100721.44;5052885;28;45430;-74
2022/06/05 03:06:14;;;;;;;;;12.33;10.67;;;;;37.27;27.26;100714.91;5053276;28;45341;-74
2022/06/05 03:08:39;;;;;;;;;11.67;11.67;;;;;37.23;27.61;100710.66;5052994;28;46749;-74
2022/06/05 03:11:05;;;;;;;;;9.33;9.00;;;;;37.01;27.29;100667.56;5053123;28;45427;-74
2022/06/05 03:13:30;;;;;;;;;8.00;8.00;;;;;37.16;27.26;100710.38;5062534;27;45476;-74
2022/06/05 03:15:55;;;;;;;;;10.00;8.00;;;;;37.20;27.49;100710.94;5093959;27;45425;-74
2022/06/05 03:18:21;;;;;;;;;9.00;8.33;;;;;37.11;27.20;100711.84;5095470;27;45391;-74
2022/06/05 03:20:46;;;;;;;;;10.00;9.00;;;;;37.08;27.88;100715.75;5094554;27;45359;-74
2022/06/05 03:23:12;;;;;;;;;10.67;9.33;;;;;37.10;27.84;100710.94;5095980;27;45383;-74
2022/06/05 03:25:39;;;;;;;;;8.00;8.00;;;;;37.23;27.35;100721.72;5096117;27;45305;-74
2022/06/05 03:28:05;;;;;;;;;11.67;10.33;;;;;37.18;27.96;100713.84;5095704;27;45388;-74
2022/06/05 03:30:31;;;;;;;;;12.00;10.33;;;;;37.11;27.85;100723.75;5097163;27;45315;-74
2022/06/05 03:32:56;;;;;;;;;9.33;9.33;;;;;37.06;27.36;100745.44;5098833;27;45460;-75
2022/06/05 03:35:22;;;;;;;;;11.00;10.00;;;;;36.91;27.58;100750.53;5099411;27;45419;-75
2022/06/05 03:37:47;;;;;;;;;10.67;10.67;;;;;36.98;27.52;100764.66;5099375;27;45405;-74
2022/06/05 03:40:15;;;;;;;;;12.33;10.00;;;;;36.97;27.68;100771.19;5099283;27;45432;-74
2022/06/05 03:42:41;;;;;;;;;10.33;10.00;;;;;36.88;28.16;100772.94;5099526;27;45326;-74
2022/06/05 03:45:15;;;;;;;;;12.33;11.67;;;;;37.02;27.53;100785.44;5099091;27;45452;-74
2022/06/05 03:47:41;;;;;;;;;13.00;12.33;;;;;37.07;27.73;100788.66;5115073;27;48263;-74
2022/06/05 03:50:07;;;;;;;;;14.00;12.67;;;;;37.10;27.79;100787.53;5098786;27;45325;-74
2022/06/05 03:52:33;;;;;;;;;10.33;10.33;;;;;36.93;27.26;100778.91;5099498;27;45426;-74
2022/06/05 03:54:58;;;;;;;;;13.33;11.00;;;;;37.01;27.45;100795.66;5098963;27;45413;-74
2022/06/05 03:57:23;;;;;;;;;14.33;12.33;;;;;36.91;27.45;100801.16;5099051;27;45312;-74
2022/06/05 03:59:49;;;;;;;;;11.00;9.00;;;;;37.13;27.80;100807.47;5098598;27;46446;-74
2022/06/05 04:02:14;;;;;;;;;14.33;14.33;;;;;37.19;27.71;100806.91;5099182;27;45228;-74
2022/06/05 04:04:39;;;;;;;;;10.33;10.33;;;;;37.01;27.80;100783.72;5099087;27;45617;-74
2022/06/05 04:07:05;;;;;;;;;12.00;12.00;;;;;37.13;27.83;100818.53;5097387;27;50315;-75
2022/06/05 04:09:30;;;;;;;;;12.00;11.00;;;;;36.95;27.31;100814.69;5098996;27;45337;-72
2022/06/05 04:11:56;;;;;;;;;10.67;9.33;;;;;36.85;28.16;100815.56;5098810;27;45409;-72
2022/06/05 04:14:21;;;;;;;;;10.67;10.67;;;;;36.94;28.27;100815.72;5098806;27;45430;-73
2022/06/05 04:16:47;;;;;;;;;13.00;10.67;;;;;36.77;28.25;100815.34;5098503;27;45455;-72
2022/06/05 04:19:12;;;;;;;;;10.33;9.00;;;;;36.95;28.31;100823.88;5098591;27;45406;-73
2022/06/05 04:21:41;;;;;;;;;12.67;12.33;;;;;37.01;27.59;100827.97;5097502;27;45940;-73
2022/06/05 04:24:07;;;;;;;;;12.67;11.67;;;;;36.92;27.77;100818.66;5098640;27;45663;-73
2022/06/05 04:26:34;;;;;;;;;11.33;11.33;;;;;36.88;28.26;100834.63;5098569;27;45491;-72
2022/06/05 04:29:00;;;;;;;;;9.00;9.00;;;;;36.89;28.39;100841.03;5098286;27;45404;-73
2022/06/05 04:31:27;;;;;;;;;11.67;11.67;;;;;36.85;27.90;100848.75;5098824;27;45277;-72
2022/06/05 04:33:56;;;;;;;;;12.33;10.67;;;;;36.85;28.10;100854.28;5098427;27;45441;-72
2022/06/05 04:36:22;;;;;;;;;12.33;12.33;;;;;36.85;27.96;100862.56;5098256;27;46460;-73
2022/06/05 04:38:48;;;;;;;;;12.67;12.67;;;;;36.87;28.00;100855.00;5114394;27;46039;-73
2022/06/05 04:41:14;;;;;;;;;14.00;14.00;;;;;36.91;28.40;100855.59;5096632;27;45752;-73
2022/06/05 04:43:40;;;;;;;;;12.67;12.67;;;;;36.92;28.22;100868.41;5098260;27;45291;-73
2022/06/05 04:46:07;;;;;;;;;10.00;10.00;;;;;36.89;27.99;100861.28;5097951;27;45998;-73
2022/06/05 04:48:33;;;;;;;;;13.33;13.33;;;;;36.94;28.50;100865.50;5098413;27;45496;-73
2022/06/05 04:50:59;;;;;;;;;13.33;11.33;;;;;37.04;28.70;100877.47;5096920;27;45620;-73
2022/06/05 04:53:24;;;;;;;;;12.67;12.67;;;;;37.11;28.14;100873.13;5098436;27;45404;-73
2022/06/05 04:55:50;;;;;;;;;11.00;11.00;;;;;37.04;27.77;100866.41;5097846;27;46011;-73
2022/06/05 04:58:15;;;;;;;;;13.33;12.33;;;;;37.12;28.53;100879.50;5097756;27;45393;-73
2022/06/05 05:00:41;;;;;;;;;13.67;10.67;;;;;37.12;27.87;100879.50;5098372;27;45512;-73
2022/06/05 05:03:07;;;;;;;;;14.33;13.33;;;;;37.09;28.31;100872.41;5096859;27;45578;-73
2022/06/05 05:05:35;;;;;;;;;16.00;13.33;;;;;37.23;28.08;100890.47;5098006;27;46225;-73
2022/06/05 05:08:01;;;;;;;;;12.33;12.33;;;;;37.24;28.43;100898.66;5097858;27;45592;-73
2022/06/05 05:10:26;;;;;;;;;14.67;13.33;;;;;37.25;28.38;100880.16;5098230;27;45295;-72
2022/06/05 05:12:52;;;;;;;;;13.67;11.67;;;;;37.40;27.65;100902.78;5097576;27;45480;-73
2022/06/05 05:15:18;;;;;;;;;14.33;13.33;;;;;37.38;28.41;100904.81;5096417;27;46232;-73
2022/06/05 05:17:43;;;;;;;;;12.67;12.67;;;;;37.35;28.30;100889.38;5097690;27;45513;-72
2022/06/05 05:20:09;;;;;;;;;12.67;12.67;;;;;37.31;28.32;100873.19;5097719;27;45542;-73
2022/06/05 05:22:37;;;;;;;;;13.33;12.00;;;;;37.43;27.97;100888.66;5098211;27;45495;-73
2022/06/05 05:25:05;;;;;;;;;13.33;12.67;;;;;37.51;28.12;100886.06;5097631;27;46151;-73
2022/06/05 05:27:30;;;;;;;;;13.67;12.33;;;;;37.48;28.31;100886.31;5096156;27;45511;-73
2022/06/05 05:29:56;;;;;;;;;16.00;15.00;;;;;37.66;27.14;100891.16;5097818;27;45471;-72
2022/06/05 05:32:21;;;;;;;;;14.33;14.33;;;;;37.51;27.06;100863.91;5097775;27;45459;-73
2022/06/05 05:34:47;;;;;;;;;17.00;14.00;;;;;37.59;27.61;100875.13;5097595;27;46315;-72
2022/06/05 05:37:12;;;;;;;;;13.67;13.00;;;;;37.58;27.77;100890.00;5097289;27;45428;-73
2022/06/05 05:42:21;;;;;;;;;14.00;13.33;;;;;37.68;27.48;100880.81;5097177;27;45388;-73
2022/06/05 05:44:48;;;;;;;;;14.67;13.67;;;;;37.55;28.04;100848.78;5097408;27;46421;-72
2022/06/05 05:47:27;;;;;;;;;14.33;14.33;;;;;37.74;27.47;100874.72;5097272;27;45458;-72
2022/06/05 05:49:57;;;;;;;;;12.33;12.33;;;;;37.82;27.28;100865.69;5097363;27;45498;-73
2022/06/05 05:52:24;;;;;;;;;11.67;11.67;;;;;37.81;27.29;100875.00;5096623;27;45438;-73
2022/06/05 05:54:51;;;;;;;;;14.33;12.67;;;;;37.82;27.71;100877.66;5095461;27;47479;-72
2022/06/05 05:57:17;;;;;;;;;15.33;14.00;;;;;37.78;27.26;100870.66;5096595;27;45360;-73
2022/06/05 05:59:42;;;;;;;;;12.67;12.00;;;;;37.99;27.27;100877.91;5095983;27;45406;-73
2022/06/05 06:02:12;;;;;;;;;9.00;9.00;;;;;38.10;27.89;100875.00;5096968;27;45365;-73
2022/06/05 06:04:38;;;;;;;;;11.33;10.00;;;;;37.83;26.94;100865.53;5097062;27;46063;-72
2022/06/05 06:07:04;;;;;;;;;8.67;7.67;;;;;37.79;26.93;100861.31;5096820;27;45401;-72
2022/06/05 06:09:29;;;;;;;;;7.00;7.00;;;;;37.82;27.20;100860.16;5097009;27;45362;-73
2022/06/05 06:11:54;;;;;;;;;9.33;8.67;;;;;37.92;27.21;100859.13;5096764;27;45300;-73
2022/06/05 06:14:20;;;;;;;;;9.00;9.00;;;;;37.89;26.50;100856.66;5096443;27;50271;-72
2022/06/05 06:16:45;;;;;;;;;8.00;8.00;;;;;38.04;26.87;100864.53;5096909;27;45483;-73
2022/06/05 06:19:10;;;;;;;;;8.67;7.67;;;;;37.84;26.67;100853.47;5096839;27;45733;-73
2022/06/05 06:21:36;;;;;;;;;6.00;6.00;;;;;37.74;26.30;100864.53;5097016;27;45426;-73
2022/06/05 06:24:01;;;;;;;;;7.50;7.50;;;;;37.81;27.05;100859.28;5096510;27;46075;-73
2022/06/05 06:26:27;;;;;;;;;8.33;8.00;;;;;37.66;27.16;100863.50;5096597;27;45484;-73
2022/06/05 06:28:52;;;;;;;;;8.00;8.00;;;;;37.32;27.37;100836.22;5096819;27;45251;-73
2022/06/05 06:31:18;;;;;;;;;7.33;6.00;;;;;37.50;27.69;100861.31;5096738;27;45365;-73
2022/06/05 06:33:45;;;;;;;;;6.67;6.67;;;;;37.54;27.16;100860.84;5095212;27;48303;-73
2022/06/05 06:36:12;;;;;;;;;8.33;8.33;;;;;37.41;27.65;100863.00;5096513;27;45578;-73
2022/06/05 06:38:38;;;;;;;;;10.67;9.00;;;;;37.30;27.41;100858.50;5096844;27;45369;-73
2022/06/05 06:41:12;;;;;;;;;8.00;7.33;;;;;37.40;27.19;100866.81;5095208;27;45337;-73
2022/06/05 06:43:39;;;;;;;;;6.33;6.00;;;;;37.34;27.72;100859.06;5096021;27;46569;-73
2022/06/05 06:46:04;;;;;;;;;7.67;7.67;;;;;37.41;27.11;100851.94;5094563;27;45422;-74
2022/06/05 06:48:30;;;;;;;;;7.67;7.00;;;;;37.38;27.65;100849.47;5096200;27;45430;-73
2022/06/05 06:50:58;;;;;;;;;7.00;7.00;;;;;37.44;27.51;100856.31;5094456;27;45766;-73
2022/06/05 06:53:25;;;;;;;;;8.00;8.00;;;;;37.34;27.82;100842.47;5095979;27;47082;-73
2022/06/05 06:55:51;;;;;;;;;6.00;5.00;;;;;37.35;27.63;100844.22;5095815;27;45580;-73
2022/06/05 06:58:17;;;;;;;;;6.67;6.67;;;;;37.28;27.01;100824.56;5096730;27;45523;-73
2022/06/05 07:00:43;;;;;;;;;7.67;6.00;;;;;37.33;27.85;100837.94;5095474;27;45584;-73
2022/06/05 07:03:09;;;;;;;;;6.33;6.33;;;;;37.32;27.27;100828.78;5096204;27;45823;-73
2022/06/05 07:05:35;;;;;;;;;8.00;8.00;;;;;37.45;27.02;100827.63;5095209;27;45460;-73
2022/06/05 07:08:00;;;;;;;;;7.00;7.00;;;;;37.36;27.29;100844.09;5094748;27;45545;-73
2022/06/05 07:10:26;;;;;;;;;8.67;7.00;;;;;37.50;27.91;100841.94;5095585;27;45465;-73
2022/06/05 07:12:51;;;;;;;;;6.33;5.33;;;;;37.59;27.13;100828.06;5094862;27;46269;-73
2022/06/05 07:15:17;;;;;;;;;8.00;6.33;;;;;37.66;26.96;100821.97;5095476;27;45366;-72
2022/06/05 07:17:43;;;;;;;;;6.00;6.00;;;;;37.63;27.09;100819.50;5092025;27;45606;-73
2022/06/05 07:20:09;;;;;;;;;8.00;8.00;;;;;37.72;27.14;100827.78;5073208;27;45481;-73
2022/06/05 07:22:34;;;;;;;;;7.33;7.00;;;;;37.73;27.26;100809.28;5088725;27;46235;-72
2022/06/05 07:25:00;;;;;;;;;6.00;6.00;;;;;37.83;26.97;100824.00;5090340;27;45876;-72
2022/06/05 07:27:27;;;;;;;;;8.67;7.00;;;;;37.81;27.28;100812.22;5089609;27;46746;-73
2022/06/05 07:29:53;;;;;;;;;6.33;6.33;;;;;37.54;27.54;100812.91;5093324;27;45604;-69
2022/06/05 07:32:20;;;;;;;;;8.00;7.00;;;;;37.61;27.39;100815.97;5088848;27;46314;-70
2022/06/05 07:34:47;;;;;;;;;9.00;8.67;;;;;37.57;27.61;100812.66;5091489;27;45535;-72
2022/06/05 07:37:13;;;;;;;;;7.00;7.00;;;;;37.70;27.41;100810.44;5089994;27;45450;-71
2022/06/05 07:39:39;;;;;;;;;9.00;7.33;;;;;37.64;26.85;100805.50;5096340;27;46055;-72
2022/06/05 07:42:05;;;;;;;;;9.00;7.33;;;;;37.39;27.83;100784.81;5093116;27;46300;-71
2022/06/05 07:44:31;;;;;;;;;6.33;6.33;;;;;37.78;27.51;100818.06;5091145;27;46500;-71
2022/06/05 07:46:56;;;;;;;;;5.00;5.00;;;;;37.86;26.75;100820.06;5088214;27;45736;-70
2022/06/05 07:49:21;;;;;;;;;9.00;9.00;;;;;37.77;27.65;100816.31;5089603;27;45534;-73
2022/06/05 07:54:33;;;;;;;;;8.33;7.00;;;;;37.82;27.49;100816.75;5088792;27;45345;-72
2022/06/05 07:57:05;;;;;;;;;7.67;7.00;;;;;37.85;27.76;100813.69;5088903;27;45560;-73
2022/06/05 07:59:37;;;;;;;;;9.33;7.00;;;;;38.03;26.81;100830.41;5087965;27;45667;-76
2022/06/05 08:02:10;;;;;;;;;6.67;6.67;;;;;38.10;26.60;100828.78;5088520;27;45572;-74
2022/06/05 08:04:37;;;;;;;;;8.33;6.33;;;;;38.10;26.66;100826.03;5087970;27;45536;-74
2022/06/05 08:07:05;;;;;;;;;7.00;7.00;;;;;38.16;26.87;100819.00;5088736;27;45526;-74
2022/06/05 08:09:32;;;;;;;;;7.00;7.00;;;;;38.23;26.45;100825.72;5089136;27;45432;-75
2022/06/05 08:11:58;;;;;;;;;9.33;9.33;;;;;38.27;26.83;100829.06;5082789;27;45538;-74
2022/06/05 08:14:24;;;;;;;;;8.33;8.00;;;;;38.32;27.16;100828.63;5089664;27;45794;-74
2022/06/05 08:16:50;;;;;;;;;5.67;5.00;;;;;38.10;26.92;100817.72;5089613;27;45483;-75
2022/06/05 08:19:19;;;;;;;;;7.00;6.00;;;;;38.10;27.16;100836.22;5108228;27;45525;-74
2022/06/05 08:21:46;;;;;;;;;7.33;7.33;;;;;38.02;26.91;100834.19;5092101;27;46498;-74
2022/06/05 08:24:11;;;;;;;;;7.67;6.67;;;;;38.04;27.53;100820.19;5093353;27;45502;-74
2022/06/05 08:26:37;;;;;;;;;10.00;8.00;;;;;38.02;26.72;100822.25;5097072;27;45504;-74
2022/06/05 08:29:03;;;;;;;;;7.67;7.67;;;;;37.99;27.51;100812.34;5097940;27;45426;-75
2022/06/05 08:31:29;;;;;;;;;6.67;6.00;;;;;38.12;27.00;100831.41;5098193;27;46338;-74
2022/06/05 08:33:57;;;;;;;;;8.33;6.67;;;;;38.14;26.93;100823.81;5098142;27;45520;-74
2022/06/05 08:36:22;;;;;;;;;8.33;8.33;;;;;38.20;26.88;100838.97;5098132;27;45429;-74
2022/06/05 08:41:53;;;;;;;;;7.00;6.67;;;;;37.97;26.90;100850.38;5098297;27;45436;-74
2022/06/05 08:44:40;;;;;;;;;6.00;5.33;;;;;38.09;26.82;100845.56;5098295;27;45454;-75
2022/06/05 08:47:18;;;;;;;;;8.67;7.33;;;;;38.00;27.00;100852.84;5098072;27;45449;-75
2022/06/05 08:49:48;;;;;;;;;6.67;6.67;;;;;38.16;26.80;100852.25;5097851;27;45414;-74
2022/06/05 08:52:19;;;;;;;;;5.33;5.33;;;;;38.24;27.14;100854.31;5096153;27;46104;-75
2022/06/05 08:55:04;;;;;;;;;6.00;6.00;;;;;38.07;27.34;100840.19;5111746;27;45731;-74
2022/06/05 08:57:39;;;;;;;;;7.00;7.00;;;;;38.03;26.50;100847.03;5094456;27;45488;-74
2022/06/05 09:00:37;;;;;;;;;8.00;8.00;;;;;38.19;26.57;100854.72;5095723;27;45502;-74
2022/06/05 09:03:11;;;;;;;;;7.33;7.33;;;;;38.30;27.01;100873.13;5035701;28;48379;-74
2022/06/05 09:05:36;;;;;;;;;8.33;7.67;;;;;38.32;27.48;100861.88;5052435;28;45497;-74
2022/06/05 09:08:11;;;;;;;;;5.00;5.00;;;;;38.16;26.53;100873.53;5054919;28;45467;-74
2022/06/05 09:10:54;;;;;;;;;8.00;8.00;;;;;38.22;27.10;100872.97;5055113;28;45684;-75
2022/06/05 09:13:29;;;;;;;;;8.67;7.33;;;;;38.14;27.53;100876.44;5055023;28;46572;-74
2022/06/05 09:16:15;;;;;;;;;5.67;5.67;;;;;38.18;26.69;100874.28;5054720;28;45515;-74
2022/06/05 09:18:46;;;;;;;;;8.33;7.00;;;;;38.14;27.78;100881.13;5037370;28;45550;-74
2022/06/05 09:21:22;;;;;;;;;11.00;7.00;;;;;38.35;27.58;100873.53;5054936;28;45413;-74
2022/06/05 09:23:59;;;;;;;;;9.00;9.00;;;;;38.75;27.78;100885.41;5037170;28;48224;-74
2022/06/05 09:26:43;;;;;;;;;6.33;6.33;;;;;38.68;27.02;100885.16;5037546;28;45432;-74
2022/06/05 09:29:21;;;;;;;;;7.67;7.67;;;;;38.53;27.98;100893.03;5054782;28;45398;-76
2022/06/05 09:32:04;;;;;;;;;8.33;8.33;;;;;38.44;28.02;100902.25;5054538;28;45498;-74
2022/06/05 09:34:35;;;;;;;;;8.33;8.33;;;;;38.30;27.39;100908.25;5054122;28;45565;-75
2022/06/05 09:37:09;;;;;;;;;8.00;7.00;;;;;38.20;28.19;100922.09;5054137;28;45442;-74
2022/06/05 09:39:50;;;;;;;;;9.00;9.00;;;;;37.87;28.01;100905.78;5092610;27;45582;-75
2022/06/05 09:42:55;;;;;;;;;8.00;8.00;;;;;37.46;28.01;100920.72;5097501;27;45306;-74
2022/06/05 09:45:45;;;;;;;;;8.00;8.00;;;;;37.53;28.46;100928.28;5033939;28;46263;-76
2022/06/05 09:48:33;;;;;;;;;8.00;7.00;;;;;37.74;28.26;100928.22;5033963;28;45306;-76
2022/06/05 09:50:59;;;;;;;;;8.00;8.00;;;;;37.72;27.99;100916.38;5034033;28;45556;-75
2022/06/05 09:53:35;;;;;;;;;6.67;6.67;;;;;37.86;27.69;100908.69;5017558;28;45577;-76
2022/06/05 09:56:15;;;;;;;;;7.33;7.33;;;;;38.09;27.54;100895.44;5033865;28;46702;-76
2022/06/05 09:59:10;;;;;;;;;9.67;9.00;;;;;38.24;27.67;100909.72;5034201;28;45316;-75
2022/06/05 10:01:49;;;;;;;;;7.00;7.00;;;;;38.06;27.53;100887.38;5034367;28;45412;-76
2022/06/05 10:04:15;;;;;;;;;10.00;10.00;;;;;38.10;27.62;100886.97;5033888;28;45401;-76
2022/06/05 10:06:46;;;;;;;;;9.00;9.00;;;;;38.18;27.96;100886.22;5033921;28;45513;-76
2022/06/05 10:09:19;;;;;;;;;10.00;8.67;;;;;38.35;27.30;100917.00;5033902;28;45428;-76
2022/06/05 10:12:07;;;;;;;;;9.67;9.67;;;;;38.28;27.64;100916.72;5033804;28;45439;-76
2022/06/05 10:14:32;;;;;;;;;9.67;8.00;;;;;38.25;27.24;100917.88;5034212;28;45427;-76
2022/06/05 10:17:16;;;;;;;;;9.33;9.00;;;;;38.18;27.52;100927.78;5032952;28;46207;-76
2022/06/05 10:20:01;;;;;;;;;8.00;8.00;;;;;38.07;27.60;100927.94;5034079;28;45420;-76
2022/06/05 10:22:26;;;;;;;;;7.67;7.00;;;;;38.02;27.77;100924.75;5072405;27;45589;-76
2022/06/05 10:25:12;;;;;;;;;8.67;8.67;;;;;37.79;27.52;100933.31;5096857;27;45413;-76
2022/06/05 10:27:51;;;;;;;;;5.00;5.00;;;;;37.70;27.93;100928.63;5096710;27;46503;-76
2022/06/05 10:30:19;;;;;;;;;12.33;10.33;;;;;37.61;28.08;100915.63;5096437;27;45542;-76
2022/06/05 10:33:01;;;;;;;;;8.33;8.33;;;;;37.75;27.56;100923.53;5096439;27;45448;-76
2022/06/05 10:35:48;;;;;;;;;11.33;10.67;;;;;37.73;27.92;100906.19;5096685;27;45494;-76
2022/06/05 10:38:25;;;;;;;;;10.00;10.00;;;;;37.82;27.34;100921.97;5096323;27;46586;-76
2022/06/05 10:40:58;;;;;;;;;6.33;5.33;;;;;37.81;27.77;100911.00;5096047;27;45354;-76
2022/06/05 10:43:29;;;;;;;;;11.00;11.00;;;;;38.25;26.98;100928.97;5096763;27;45348;-76
2022/06/05 10:46:13;;;;;;;;;10.33;10.33;;;;;38.06;26.82;100921.53;5112048;27;45333;-76
2022/06/05 10:48:57;;;;;;;;;11.00;11.00;;;;;38.02;26.81;100921.97;5095173;27;47344;-75
2022/06/05 10:51:47;;;;;;;;;13.33;12.67;;;;;38.35;26.68;100926.19;5096430;27;45275;-76
2022/06/05 10:54:43;;;;;;;;;13.33;12.33;;;;;38.17;26.69;100919.63;5096562;27;45309;-76
2022/06/05 10:57:31;;;;;;;;;14.00;10.33;;;;;38.49;26.21;100952.56;5096026;27;45671;-76
2022/06/05 10:59:59;;;;;;;;;11.67;10.67;;;;;38.37;26.33;100953.75;5096045;27;45490;-76
2022/06/05 11:02:45;;;;;;;;;10.67;10.67;;;;;38.30;26.39;100939.63;5095805;27;45387;-76
2022/06/05 11:05:48;;;;;;;;;12.00;9.67;;;;;38.42;26.14;100960.59;5095050;27;45362;-76
2022/06/05 11:08:23;;;;;;;;;10.00;10.00;;;;;38.18;26.53;100955.47;5096165;27;45367;-76
2022/06/05 11:14:10;;;;;;;;;10.00;8.67;;;;;38.30;26.58;100969.22;5095760;27;45469;-76
2022/06/05 11:16:50;;;;;;;;;14.33;14.33;;;;;38.30;26.38;100955.34;5095735;27;45437;-75
2022/06/05 11:19:38;;;;;;;;;13.33;12.33;;;;;38.35;26.01;100955.81;5094679;27;45394;-76
2022/06/05 11:22:11;;;;;;;;;15.33;14.00;;;;;38.18;25.63;100949.94;5095101;27;46335;-76
2022/06/05 11:24:56;;;;;;;;;11.33;9.33;;;;;37.84;26.45;100964.22;5095434;27;45428;-76
2022/06/05 11:27:51;;;;;;;;;11.33;11.33;;;;;38.08;25.76;100958.25;5095993;27;45394;-76
2022/06/05 11:30:25;;;;;;;;;12.33;12.00;;;;;38.04;25.93;100955.94;5080495;27;45493;-76
2022/06/05 11:32:58;;;;;;;;;10.33;10.33;;;;;37.97;26.14;100968.63;5095361;27;45398;-76
2022/06/05 11:35:37;;;;;;;;;14.67;14.67;;;;;37.81;26.20;100969.16;5095643;27;45364;-76
2022/06/05 11:38:18;;;;;;;;;15.33;15.33;;;;;38.25;25.81;100973.28;5095616;27;45369;-76
2022/06/05 11:40:55;;;;;;;;;13.67;13.67;;;;;38.42;25.86;100974.44;5094477;27;45490;-76
2022/06/05 11:43:32;;;;;;;;;15.67;13.33;;;;;38.20;25.53;100974.72;5111336;27;48245;-76
2022/06/05 11:46:00;;;;;;;;;16.00;13.00;;;;;37.89;25.72;100977.63;5111160;27;45447;-76
2022/06/05 11:48:35;;;;;;;;;12.33;12.33;;;;;37.75;26.58;100988.13;5095458;27;45477;-76
2022/06/05 11:51:13;;;;;;;;;13.00;11.33;;;;;37.71;26.55;101007.91;5095962;27;45530;-77
2022/06/05 11:53:52;;;;;;;;;11.33;11.00;;;;;37.36;26.60;100987.09;5100766;27;46165;-76
2022/06/05 11:56:23;;;;;;;;;15.00;14.00;;;;;37.69;25.96;100994.16;5100417;27;45422;-76
2022/06/05 11:59:22;;;;;;;;;15.00;13.33;;;;;37.85;25.71;101001.97;5098672;27;45531;-76